createdAt,value
2022-12-10T00:00:19.667Z,-6.97
2022-12-10T00:02:22.497Z,-7.03
2022-12-10T00:04:25.488Z,-6.95
2022-12-10T00:06:31.633Z,-6.96
2022-12-10T00:08:35.412Z,-6.97
2022-12-10T00:10:42.127Z,-6.96
2022-12-10T00:12:44.862Z,-7.00
2022-12-10T00:14:47.653Z,-7.01
2022-12-10T00:16:50.647Z,-7.04
2022-12-10T00:18:54.383Z,-7.04
2022-12-10T00:20:57.618Z,-7.03
2022-12-10T00:23:00.347Z,-7.04
2022-12-10T00:25:03.298Z,-7.09
2022-12-10T00:27:06.584Z,-7.03
2022-12-10T00:29:12.285Z,-7.04
2022-12-10T00:31:21.766Z,-7.05
2022-12-10T00:33:24.524Z,-7.03
2022-12-10T00:35:27.453Z,-7.01
2022-12-10T00:37:30.429Z,-7.03
2022-12-10T00:39:33.208Z,-7.05
2022-12-10T00:41:36.019Z,-7.05
2022-12-10T00:43:39.235Z,-7.02
2022-12-10T00:45:42.249Z,-7.05
2022-12-10T00:47:45.027Z,-7.06
2022-12-10T00:49:52.579Z,-7.05
2022-12-10T00:51:55.812Z,-7.10
2022-12-10T00:53:59.974Z,-7.08
2022-12-10T00:56:04.572Z,-7.07
2022-12-10T00:58:07.122Z,-7.11
2022-12-10T01:00:10.645Z,-7.07
2022-12-10T01:02:13.623Z,-7.07
2022-12-10T01:04:18.631Z,-7.05
2022-12-10T01:06:22.998Z,-7.05
2022-12-10T01:08:25.598Z,-7.05
2022-12-10T01:10:28.155Z,-7.08
2022-12-10T01:12:30.677Z,-7.05
2022-12-10T01:14:34.752Z,-7.07
2022-12-10T01:16:38.227Z,-7.04
2022-12-10T01:18:41.964Z,-6.98
2022-12-10T01:20:44.574Z,-6.98
2022-12-10T01:22:47.116Z,-7.00
2022-12-10T01:24:49.700Z,-6.98
2022-12-10T01:26:52.518Z,-6.97
2022-12-10T01:28:55.809Z,-7.02
2022-12-10T01:31:02.779Z,-7.02
2022-12-10T01:33:05.363Z,-7.04
2022-12-10T01:35:08.407Z,-7.02
2022-12-10T01:37:11.835Z,-7.04
2022-12-10T01:39:17.152Z,-7.05
2022-12-10T01:41:23.923Z,-7.05
2022-12-10T01:43:27.475Z,-7.06
2022-12-10T01:45:30.177Z,-7.01
2022-12-10T01:47:32.884Z,-7.02
2022-12-10T01:49:38.545Z,-7.04
2022-12-10T01:51:43.714Z,-7.07
2022-12-10T01:53:47.336Z,-7.02
2022-12-10T01:55:52.279Z,-7.10
2022-12-10T01:57:54.947Z,-7.05
2022-12-10T02:00:02.239Z,-7.06
2022-12-10T02:02:27.621Z,-7.07
2022-12-10T02:04:59.342Z,-7.07
2022-12-10T02:07:15.893Z,-7.11
2022-12-10T02:09:39.973Z,-7.07
2022-12-10T02:12:04.958Z,-7.08
2022-12-10T02:14:50.620Z,-7.07
2022-12-10T02:17:01.305Z,-7.10
2022-12-10T02:19:35.058Z,-7.12
2022-12-10T02:21:41.646Z,-7.09
2022-12-10T02:23:50.412Z,-7.09
2022-12-10T02:26:07.516Z,-7.09
2022-12-10T02:28:16.509Z,-7.11
2022-12-10T02:30:19.949Z,-7.14
2022-12-10T02:32:31.679Z,-7.13
2022-12-10T02:34:38.340Z,-7.06
2022-12-10T02:36:45.752Z,-7.07
2022-12-10T02:38:51.985Z,-7.05
2022-12-10T02:41:00.207Z,-7.07
2022-12-10T02:43:02.810Z,-7.08
2022-12-10T02:45:06.425Z,-7.08
2022-12-10T02:47:10.287Z,-7.06
2022-12-10T02:49:16.152Z,-7.02
2022-12-10T02:51:19.394Z,-7.03
2022-12-10T02:53:22.016Z,-7.08
2022-12-10T02:55:24.612Z,-7.08
2022-12-10T02:58:05.229Z,-7.06
2022-12-10T03:00:08.376Z,-7.04
2022-12-10T03:03:01.653Z,-7.05
2022-12-10T03:05:28.299Z,-7.08
2022-12-10T03:08:09.481Z,-7.08
2022-12-10T03:10:32.285Z,-7.06
2022-12-10T03:12:42.564Z,-7.10
2022-12-10T03:14:46.936Z,-7.10
2022-12-10T03:16:55.139Z,-7.14
2022-12-10T03:19:02.119Z,-7.12
2022-12-10T03:21:08.289Z,-7.12
2022-12-10T03:23:15.838Z,-7.14
2022-12-10T03:25:25.485Z,-7.12
2022-12-10T03:27:30.468Z,-7.07
2022-12-10T03:29:41.256Z,-7.12
2022-12-10T03:31:45.349Z,-7.14
2022-12-10T03:33:50.145Z,-7.15
2022-12-10T03:35:53.074Z,-7.13
2022-12-10T03:37:55.992Z,-7.14
2022-12-10T03:40:00.661Z,-7.14
2022-12-10T03:42:03.352Z,-7.10
2022-12-10T03:44:05.975Z,-7.10
2022-12-10T03:46:08.617Z,-7.11
2022-12-10T03:48:11.295Z,-7.14
2022-12-10T03:50:13.887Z,-7.12
2022-12-10T03:52:16.812Z,-7.14
2022-12-10T03:54:20.207Z,-7.13
2022-12-10T03:56:23.490Z,-7.14
2022-12-10T03:58:26.133Z,-7.15
2022-12-10T04:00:28.677Z,-7.15
2022-12-10T04:02:31.337Z,-7.17
2022-12-10T04:04:34.075Z,-7.16
2022-12-10T04:06:39.264Z,-7.18
2022-12-10T04:08:41.958Z,-7.15
2022-12-10T04:10:44.523Z,-7.16
2022-12-10T04:13:06.995Z,-7.16
2022-12-10T04:15:28.133Z,-7.18
2022-12-10T04:17:33.624Z,-7.14
2022-12-10T04:19:36.579Z,-7.15
2022-12-10T04:21:59.527Z,-7.14
2022-12-10T04:24:20.296Z,-7.12
2022-12-10T04:26:41.186Z,-7.09
2022-12-10T04:28:44.384Z,-7.10
2022-12-10T04:30:46.977Z,-7.05
2022-12-10T04:32:49.748Z,-7.04
2022-12-10T04:34:52.885Z,-7.04
2022-12-10T04:36:55.950Z,-7.04
2022-12-10T04:38:58.473Z,-6.97
2022-12-10T04:41:01.355Z,-6.97
2022-12-10T04:43:04.017Z,-6.97
2022-12-10T04:45:07.108Z,-6.97
2022-12-10T04:47:10.875Z,-7.00
2022-12-10T04:49:13.941Z,-6.98
2022-12-10T04:51:16.589Z,-6.95
2022-12-10T04:53:19.177Z,-6.96
2022-12-10T04:55:21.681Z,-7.03
2022-12-10T04:57:24.276Z,-6.95
2022-12-10T04:59:27.095Z,-6.93
2022-12-10T05:01:30.471Z,-6.94
2022-12-10T05:03:33.471Z,-6.94
2022-12-10T05:05:36.940Z,-6.92
2022-12-10T05:07:39.463Z,-6.90
2022-12-10T05:09:42.085Z,-6.93
2022-12-10T05:11:47.710Z,-6.95
2022-12-10T05:13:50.442Z,-6.93
2022-12-10T05:15:53.045Z,-6.94
2022-12-10T05:17:55.639Z,-6.94
2022-12-10T05:19:58.201Z,-6.95
2022-12-10T05:22:19.516Z,-6.88
2022-12-10T05:24:22.154Z,-6.92
2022-12-10T05:26:25.258Z,-6.94
2022-12-10T05:28:28.454Z,-6.94
2022-12-10T05:30:31.005Z,-6.92
2022-12-10T05:32:34.515Z,-6.94
2022-12-10T05:34:37.103Z,-6.92
2022-12-10T05:36:39.824Z,-6.91
2022-12-10T05:38:43.356Z,-6.90
2022-12-10T05:40:45.948Z,-6.90
2022-12-10T05:42:48.502Z,-6.88
2022-12-10T05:44:51.003Z,-6.88
2022-12-10T05:46:53.694Z,-6.88
2022-12-10T05:48:57.278Z,-6.91
2022-12-10T05:51:04.088Z,-6.85
2022-12-10T05:53:06.858Z,-6.88
2022-12-10T05:55:09.816Z,-6.90
2022-12-10T05:57:12.433Z,-6.87
2022-12-10T05:59:17.035Z,-6.91
2022-12-10T06:01:22.968Z,-6.93
2022-12-10T06:03:28.570Z,-6.89
2022-12-10T06:05:37.036Z,-6.91
2022-12-10T06:07:40.246Z,-6.83
2022-12-10T06:09:43.282Z,-6.87
2022-12-10T06:11:46.056Z,-6.92
2022-12-10T06:13:54.509Z,-6.89
2022-12-10T06:15:58.703Z,-6.92
2022-12-10T06:18:01.418Z,-6.88
2022-12-10T06:20:04.370Z,-6.85
2022-12-10T06:22:07.140Z,-6.78
2022-12-10T06:24:09.765Z,-6.79
2022-12-10T06:26:15.636Z,-6.74
2022-12-10T06:28:18.296Z,-6.71
2022-12-10T06:30:20.916Z,-6.71
2022-12-10T06:32:23.569Z,-6.70
2022-12-10T06:34:26.357Z,-6.75
2022-12-10T06:36:29.090Z,-6.77
2022-12-10T06:38:32.016Z,-6.75
2022-12-10T06:40:34.891Z,-6.77
2022-12-10T06:42:37.501Z,-6.75
2022-12-10T06:44:40.113Z,-6.78
2022-12-10T06:46:43.466Z,-6.77
2022-12-10T06:48:46.609Z,-6.73
2022-12-10T06:50:49.287Z,-6.72
2022-12-10T06:52:55.053Z,-6.68
2022-12-10T06:54:57.840Z,-6.70
2022-12-10T06:57:00.476Z,-6.72
2022-12-10T06:59:07.378Z,-6.71
2022-12-10T07:01:14.908Z,-6.68
2022-12-10T07:03:17.773Z,-6.66
2022-12-10T07:05:20.418Z,-6.67
2022-12-10T07:07:23.095Z,-6.66
2022-12-10T07:09:25.659Z,-6.65
2022-12-10T07:11:28.344Z,-6.66
2022-12-10T07:13:31.072Z,-6.62
2022-12-10T07:15:33.704Z,-6.67
2022-12-10T07:17:36.395Z,-6.62
2022-12-10T07:19:39.027Z,-6.60
2022-12-10T07:21:44.025Z,-6.55
2022-12-10T07:23:46.829Z,-6.53
2022-12-10T07:25:49.396Z,-6.53
2022-12-10T07:27:57.492Z,-6.61
2022-12-10T07:30:00.651Z,-6.58
2022-12-10T07:32:03.360Z,-6.59
2022-12-10T07:34:06.132Z,-6.59
2022-12-10T07:36:11.857Z,-6.55
2022-12-10T07:38:14.511Z,-6.47
2022-12-10T07:40:17.305Z,-6.47
2022-12-10T07:42:19.870Z,-6.44
2022-12-10T07:44:26.251Z,-6.38
2022-12-10T07:46:32.708Z,-6.40
2022-12-10T07:48:35.909Z,-6.29
2022-12-10T07:50:38.643Z,-6.26
2022-12-10T07:52:41.165Z,-6.21
2022-12-10T07:54:43.990Z,-6.21
2022-12-10T07:56:54.515Z,-6.22
2022-12-10T07:58:57.114Z,-6.21
2022-12-10T08:00:59.761Z,-6.18
2022-12-10T08:03:02.457Z,-6.15
2022-12-10T08:05:05.367Z,-6.18
2022-12-10T08:07:08.698Z,-6.17
2022-12-10T08:09:12.142Z,-6.18
2022-12-10T08:11:17.126Z,-6.16
2022-12-10T08:13:19.666Z,-6.18
2022-12-10T08:15:22.359Z,-6.17
2022-12-10T08:17:24.928Z,-6.13
2022-12-10T08:19:31.678Z,-6.08
2022-12-10T08:21:34.867Z,-6.08
2022-12-10T08:23:37.657Z,-6.07
2022-12-10T08:25:40.734Z,-6.09
2022-12-10T08:27:43.595Z,-6.08
2022-12-10T08:29:46.177Z,-6.04
2022-12-10T08:31:49.136Z,-6.03
2022-12-10T08:33:51.833Z,-6.00
2022-12-10T08:35:59.523Z,-5.97
2022-12-10T08:38:02.091Z,-6.00
2022-12-10T08:40:05.172Z,-5.99
2022-12-10T08:42:07.998Z,-6.02
2022-12-10T08:44:11.796Z,-6.01
2022-12-10T08:46:15.541Z,-6.00
2022-12-10T08:48:18.405Z,-5.99
2022-12-10T08:50:20.931Z,-6.02
2022-12-10T08:52:23.515Z,-6.03
2022-12-10T08:54:26.220Z,-5.97
2022-12-10T08:56:28.887Z,-5.99
2022-12-10T08:58:31.829Z,-6.03
2022-12-10T09:00:34.490Z,-6.05
2022-12-10T09:02:37.152Z,-6.09
2022-12-10T09:04:40.384Z,-6.11
2022-12-10T09:06:43.143Z,-6.11
2022-12-10T09:08:46.244Z,-6.07
2022-12-10T09:10:48.928Z,-6.03
2022-12-10T09:12:51.928Z,-6.02
2022-12-10T09:14:54.692Z,-6.04
2022-12-10T09:16:57.367Z,-6.03
2022-12-10T09:19:01.271Z,-6.01
2022-12-10T09:21:08.700Z,-5.97
2022-12-10T09:23:11.624Z,-5.93
2022-12-10T09:25:16.440Z,-5.92
2022-12-10T09:27:19.098Z,-5.87
2022-12-10T09:29:21.788Z,-5.82
2022-12-10T09:31:24.749Z,-5.81
2022-12-10T09:33:28.587Z,-5.76
2022-12-10T09:35:31.751Z,-5.75
2022-12-10T09:37:34.543Z,-5.75
2022-12-10T09:39:37.393Z,-5.72
2022-12-10T09:42:13.881Z,-5.78
2022-12-10T09:44:41.621Z,-5.78
2022-12-10T09:46:50.095Z,-5.81
2022-12-10T09:49:17.446Z,-5.83
2022-12-10T09:51:26.230Z,-5.81
2022-12-10T09:53:30.103Z,-5.78
2022-12-10T09:55:43.820Z,-5.76
2022-12-10T09:57:51.491Z,-5.80
2022-12-10T09:59:55.416Z,-5.80
2022-12-10T10:02:03.123Z,-5.77
2022-12-10T10:04:06.210Z,-5.77
2022-12-10T10:06:13.173Z,-5.82
2022-12-10T10:08:35.310Z,-5.78
2022-12-10T10:10:40.658Z,-5.81
2022-12-10T10:12:44.056Z,-5.84
2022-12-10T10:14:46.737Z,-5.85
2022-12-10T10:17:11.413Z,-5.90
2022-12-10T10:19:18.593Z,-5.88
2022-12-10T10:21:36.847Z,-5.87
2022-12-10T10:23:42.284Z,-5.91
2022-12-10T10:25:46.119Z,-5.90
2022-12-10T10:27:48.697Z,-5.91
2022-12-10T10:29:57.854Z,-5.94
2022-12-10T10:32:19.310Z,-5.96
2022-12-10T10:34:24.234Z,-5.94
2022-12-10T10:36:34.208Z,-5.94
2022-12-10T10:38:36.804Z,-5.95
2022-12-10T10:40:43.313Z,-5.97
2022-12-10T10:42:46.604Z,-6.02
2022-12-10T10:44:49.308Z,-6.02
2022-12-10T10:46:54.926Z,-6.05
2022-12-10T10:49:25.952Z,-6.08
2022-12-10T10:51:28.442Z,-6.15
2022-12-10T10:53:58.391Z,-6.22
2022-12-10T10:56:09.431Z,-6.19
2022-12-10T10:58:20.247Z,-6.19
2022-12-10T11:00:24.385Z,-6.20
2022-12-10T11:02:37.898Z,-6.19
2022-12-10T11:04:48.891Z,-6.25
2022-12-10T11:06:57.024Z,-6.28
2022-12-10T11:08:59.892Z,-6.27
2022-12-10T11:11:11.714Z,-6.28
2022-12-10T11:13:40.974Z,-6.26
2022-12-10T11:15:43.928Z,-6.23
2022-12-10T11:17:51.543Z,-6.29
2022-12-10T11:19:58.984Z,-6.26
2022-12-10T11:22:21.738Z,-6.29
2022-12-10T11:24:26.751Z,-6.27
2022-12-10T11:26:51.524Z,-6.29
2022-12-10T11:29:34.877Z,-6.28
2022-12-10T11:31:51.711Z,-6.30
2022-12-10T11:34:05.386Z,-6.31
2022-12-10T11:36:31.187Z,-6.35
2022-12-10T11:38:40.489Z,-6.36
2022-12-10T11:41:03.537Z,-6.38
2022-12-10T11:43:29.551Z,-6.35
2022-12-10T11:46:09.720Z,-6.33
2022-12-10T11:48:42.181Z,-6.35
2022-12-10T11:50:52.713Z,-6.40
2022-12-10T11:53:36.457Z,-6.38
2022-12-10T11:55:54.092Z,-6.39
2022-12-10T11:58:30.075Z,-6.36
2022-12-10T12:00:58.046Z,-6.35
2022-12-10T12:03:25.438Z,-6.30
2022-12-10T12:05:50.686Z,-6.30
2022-12-10T12:08:14.683Z,-6.36
2022-12-10T12:10:53.770Z,-6.30
2022-12-10T12:13:05.219Z,-6.31
2022-12-10T12:15:28.005Z,-6.32
2022-12-10T12:17:33.401Z,-6.28
2022-12-10T12:19:41.030Z,-6.26
2022-12-10T12:21:48.435Z,-6.25
2022-12-10T12:24:19.833Z,-6.25
2022-12-10T12:26:39.191Z,-6.26
2022-12-10T12:28:53.623Z,-6.28
2022-12-10T12:31:11.568Z,-6.29
2022-12-10T12:33:48.436Z,-6.25
2022-12-10T12:36:17.898Z,-6.28
2022-12-10T12:38:31.028Z,-6.24
2022-12-10T12:40:52.933Z,-6.22
2022-12-10T12:43:12.696Z,-6.29
2022-12-10T12:45:25.940Z,-6.25
2022-12-10T12:47:49.909Z,-6.22
2022-12-10T12:49:54.081Z,-6.23
2022-12-10T12:52:35.319Z,-6.19
2022-12-10T12:54:38.211Z,-6.14
2022-12-10T12:57:01.895Z,-6.09
2022-12-10T12:59:52.272Z,-6.12
2022-12-10T13:02:00.377Z,-6.08
2022-12-10T13:04:04.589Z,-6.13
2022-12-10T13:06:34.695Z,-6.12
2022-12-10T13:08:44.779Z,-6.06
2022-12-10T13:10:52.464Z,-6.05
2022-12-10T13:13:32.374Z,-6.06
2022-12-10T13:15:40.238Z,-6.06
2022-12-10T13:18:15.881Z,-6.01
2022-12-10T13:20:27.647Z,-5.98
2022-12-10T13:22:39.030Z,-6.00
2022-12-10T13:24:48.502Z,-5.97
2022-12-10T13:27:15.855Z,-5.97
2022-12-10T13:29:18.390Z,-5.93
2022-12-10T13:31:23.368Z,-5.90
2022-12-10T13:33:26.032Z,-5.91
2022-12-10T13:35:32.165Z,-5.90
2022-12-10T13:37:38.001Z,-5.87
2022-12-10T13:40:00.928Z,-5.87
2022-12-10T13:42:24.643Z,-5.83
2022-12-10T13:45:04.098Z,-5.79
2022-12-10T13:47:13.529Z,-5.79
2022-12-10T13:49:19.898Z,-5.78
2022-12-10T13:51:34.085Z,-5.80
2022-12-10T13:53:54.258Z,-5.77
2022-12-10T13:56:23.145Z,-5.77
2022-12-10T13:58:28.825Z,-5.71
2022-12-10T14:00:51.119Z,-5.76
2022-12-10T14:03:02.402Z,-5.70
2022-12-10T14:05:07.690Z,-5.70
2022-12-10T14:07:14.022Z,-5.70
2022-12-10T14:09:35.303Z,-5.75
2022-12-10T14:11:41.692Z,-5.68
2022-12-10T14:13:48.916Z,-5.63
2022-12-10T14:15:56.852Z,-5.64
2022-12-10T14:18:10.197Z,-5.67
2022-12-10T14:20:26.977Z,-5.63
2022-12-10T14:22:39.068Z,-5.62
2022-12-10T14:24:44.463Z,-5.64
2022-12-10T14:26:46.921Z,-5.64
2022-12-10T14:29:16.434Z,-5.63
2022-12-10T14:31:28.836Z,-5.62
2022-12-10T14:33:32.299Z,-5.60
2022-12-10T14:35:34.975Z,-5.58
2022-12-10T14:37:41.657Z,-5.57
2022-12-10T14:39:44.456Z,-5.59
2022-12-10T14:41:52.951Z,-5.61
2022-12-10T14:43:55.871Z,-5.56
2022-12-10T14:46:00.399Z,-5.61
2022-12-10T14:48:08.462Z,-5.53
2022-12-10T14:50:14.279Z,-5.54
2022-12-10T14:52:24.319Z,-5.54
2022-12-10T14:54:29.364Z,-5.53
2022-12-10T14:56:38.772Z,-5.51
2022-12-10T14:58:49.519Z,-5.54
2022-12-10T15:00:52.184Z,-5.56
2022-12-10T15:03:01.914Z,-5.59
2022-12-10T15:05:17.936Z,-5.55
2022-12-10T15:07:24.723Z,-5.56
2022-12-10T15:09:27.900Z,-5.59
2022-12-10T15:11:30.808Z,-5.57
2022-12-10T15:13:38.432Z,-5.55
2022-12-10T15:15:41.655Z,-5.52
2022-12-10T15:18:04.052Z,-5.55
2022-12-10T15:20:25.471Z,-5.56
2022-12-10T15:22:35.687Z,-5.61
2022-12-10T15:24:43.866Z,-5.61
2022-12-10T15:26:52.119Z,-5.62
2022-12-10T15:29:31.922Z,-5.64
2022-12-10T15:31:34.531Z,-5.63
2022-12-10T15:34:08.167Z,-5.69
2022-12-10T15:36:20.438Z,-5.70
2022-12-10T15:38:24.257Z,-5.78
2022-12-10T15:40:30.992Z,-5.72
2022-12-10T15:42:43.852Z,-5.75
2022-12-10T15:44:47.131Z,-5.75
2022-12-10T15:47:10.775Z,-5.78
2022-12-10T15:49:13.413Z,-5.83
2022-12-10T15:51:16.037Z,-5.81
2022-12-10T15:53:35.221Z,-5.83
2022-12-10T15:55:38.372Z,-5.81
2022-12-10T15:57:45.959Z,-5.79
2022-12-10T15:59:50.780Z,-5.78
2022-12-10T16:01:53.400Z,-5.79
2022-12-10T16:03:56.019Z,-5.79
2022-12-10T16:05:59.366Z,-5.81
2022-12-10T16:08:13.495Z,-5.81
2022-12-10T16:10:18.811Z,-5.79
2022-12-10T16:12:21.642Z,-5.79
2022-12-10T16:14:24.237Z,-5.81
2022-12-10T16:16:27.830Z,-5.84
2022-12-10T16:18:34.304Z,-5.85
2022-12-10T16:20:37.491Z,-5.87
2022-12-10T16:22:40.049Z,-5.88
2022-12-10T16:24:45.272Z,-5.89
2022-12-10T16:26:48.048Z,-5.89
2022-12-10T16:28:51.815Z,-5.96
2022-12-10T16:30:56.864Z,-5.92
2022-12-10T16:32:59.978Z,-5.94
2022-12-10T16:35:02.559Z,-5.96
2022-12-10T16:37:06.501Z,-5.98
2022-12-10T16:39:10.384Z,-6.00
2022-12-10T16:41:23.575Z,-6.02
2022-12-10T16:43:33.846Z,-6.03
2022-12-10T16:45:38.561Z,-6.01
2022-12-10T16:47:41.326Z,-5.96
2022-12-10T16:49:43.909Z,-5.98
2022-12-10T16:51:46.558Z,-5.94
2022-12-10T16:53:49.212Z,-5.98
2022-12-10T16:55:52.699Z,-5.97
2022-12-10T16:57:55.916Z,-6.00
2022-12-10T16:59:58.471Z,-5.97
2022-12-10T17:02:01.178Z,-5.94
2022-12-10T17:04:04.422Z,-5.92
2022-12-10T17:06:07.414Z,-5.97
2022-12-10T17:08:11.515Z,-5.94
2022-12-10T17:10:15.136Z,-5.96
2022-12-10T17:12:18.093Z,-5.91
2022-12-10T17:14:26.623Z,-5.93
2022-12-10T17:16:29.527Z,-5.92
2022-12-10T17:18:34.600Z,-5.89
2022-12-10T17:20:37.436Z,-5.94
2022-12-10T17:22:40.072Z,-5.88
2022-12-10T17:24:42.645Z,-5.86
2022-12-10T17:26:48.487Z,-5.92
2022-12-10T17:28:52.310Z,-5.92
2022-12-10T17:30:55.039Z,-5.96
2022-12-10T17:32:57.871Z,-5.90
2022-12-10T17:35:00.621Z,-5.90
2022-12-10T17:37:11.327Z,-5.84
2022-12-10T17:39:21.903Z,-5.86
2022-12-10T17:41:25.085Z,-5.88
2022-12-10T17:43:27.733Z,-5.91
2022-12-10T17:45:30.373Z,-5.86
2022-12-10T17:47:33.579Z,-5.88
2022-12-10T17:49:37.369Z,-5.83
2022-12-10T17:51:39.948Z,-5.82
2022-12-10T17:53:43.581Z,-5.79
2022-12-10T17:55:56.524Z,-5.81
2022-12-10T17:57:59.499Z,-5.80
2022-12-10T18:00:02.080Z,-5.82
2022-12-10T18:02:08.880Z,-5.77
2022-12-10T18:04:11.382Z,-5.78
2022-12-10T18:06:21.409Z,-5.73
2022-12-10T18:08:24.174Z,-5.72
2022-12-10T18:10:30.648Z,-5.69
2022-12-10T18:12:33.962Z,-5.72
2022-12-10T18:14:36.919Z,-5.75
2022-12-10T18:16:39.460Z,-5.74
2022-12-10T18:18:41.946Z,-5.74
2022-12-10T18:20:46.099Z,-5.71
2022-12-10T18:22:48.862Z,-5.74
2022-12-10T18:25:02.762Z,-5.72
2022-12-10T18:27:16.689Z,-5.69
2022-12-10T18:29:19.370Z,-5.71
2022-12-10T18:31:28.970Z,-5.68
2022-12-10T18:33:40.137Z,-5.72
2022-12-10T18:35:44.110Z,-5.73
2022-12-10T18:37:47.110Z,-5.68
2022-12-10T18:40:07.248Z,-5.65
2022-12-10T18:42:09.873Z,-5.65
2022-12-10T18:44:15.816Z,-5.64
2022-12-10T18:46:27.485Z,-5.62
2022-12-10T18:48:30.197Z,-5.63
2022-12-10T18:50:34.680Z,-5.61
2022-12-10T18:52:37.207Z,-5.59
2022-12-10T18:54:41.259Z,-5.59
2022-12-10T18:56:45.243Z,-5.57
2022-12-10T18:58:53.237Z,-5.57
2022-12-10T19:00:55.919Z,-5.55
2022-12-10T19:03:00.200Z,-5.57
2022-12-10T19:05:03.891Z,-5.55
2022-12-10T19:07:06.847Z,-5.55
2022-12-10T19:09:19.399Z,-5.56
2022-12-10T19:11:23.792Z,-5.58
2022-12-10T19:13:26.787Z,-5.52
2022-12-10T19:15:29.707Z,-5.56
2022-12-10T19:17:32.472Z,-5.54
2022-12-10T19:19:34.996Z,-5.55
2022-12-10T19:21:37.584Z,-5.55
2022-12-10T19:23:41.228Z,-5.50
2022-12-10T19:25:44.333Z,-5.51
2022-12-10T19:27:47.518Z,-5.50
2022-12-10T19:29:50.037Z,-5.51
2022-12-10T19:31:53.026Z,-5.49
2022-12-10T19:33:56.122Z,-5.51
2022-12-10T19:35:59.717Z,-5.49
2022-12-10T19:38:02.311Z,-5.49
2022-12-10T19:40:42.614Z,-5.51
2022-12-10T19:42:45.287Z,-5.48
2022-12-10T19:44:48.839Z,-5.46
2022-12-10T19:46:51.705Z,-5.50
2022-12-10T19:48:54.613Z,-5.55
2022-12-10T19:50:57.228Z,-5.53
2022-12-10T19:53:00.294Z,-5.53
2022-12-10T19:55:02.975Z,-5.58
2022-12-10T19:57:05.840Z,-5.54
2022-12-10T19:59:18.294Z,-5.56
2022-12-10T20:01:21.210Z,-5.56
2022-12-10T20:03:23.788Z,-5.57
2022-12-10T20:05:26.386Z,-5.60
2022-12-10T20:07:30.050Z,-5.59
2022-12-10T20:09:32.928Z,-5.63
2022-12-10T20:11:35.508Z,-5.60
2022-12-10T20:13:38.589Z,-5.64
2022-12-10T20:15:46.973Z,-5.65
2022-12-10T20:17:50.298Z,-5.66
2022-12-10T20:19:53.087Z,-5.70
2022-12-10T20:21:55.708Z,-5.66
2022-12-10T20:24:02.874Z,-5.62
2022-12-10T20:26:13.845Z,-5.61
2022-12-10T20:28:18.121Z,-5.59
2022-12-10T20:30:28.568Z,-5.62
2022-12-10T20:32:31.133Z,-5.63
2022-12-10T20:34:34.147Z,-5.61
2022-12-10T20:36:38.949Z,-5.61
2022-12-10T20:38:41.537Z,-5.64
2022-12-10T20:40:44.096Z,-5.65
2022-12-10T20:42:46.756Z,-5.66
2022-12-10T20:44:49.393Z,-5.65
2022-12-10T20:46:53.488Z,-5.68
2022-12-10T20:48:56.499Z,-5.67
2022-12-10T20:50:59.073Z,-5.65
2022-12-10T20:53:01.665Z,-5.64
2022-12-10T20:55:05.535Z,-5.66
2022-12-10T20:57:11.567Z,-5.66
2022-12-10T20:59:16.867Z,-5.67
2022-12-10T21:01:20.570Z,-5.63
2022-12-10T21:03:23.322Z,-5.64
2022-12-10T21:05:25.983Z,-5.62
2022-12-10T21:07:28.557Z,-5.67
2022-12-10T21:09:31.076Z,-5.65
2022-12-10T21:11:34.156Z,-5.73
2022-12-10T21:13:37.025Z,-5.67
2022-12-10T21:15:39.828Z,-5.63
2022-12-10T21:17:43.020Z,-5.63
2022-12-10T21:19:45.611Z,-5.62
2022-12-10T21:21:48.185Z,-5.65
2022-12-10T21:23:51.072Z,-5.68
2022-12-10T21:25:54.775Z,-5.71
2022-12-10T21:27:57.748Z,-5.65
2022-12-10T21:30:00.379Z,-5.68
2022-12-10T21:32:02.900Z,-5.67
2022-12-10T21:34:05.485Z,-5.68
2022-12-10T21:36:09.368Z,-5.63
2022-12-10T21:38:12.454Z,-5.67
2022-12-10T21:40:16.358Z,-5.64
2022-12-10T21:42:37.682Z,-5.65
2022-12-10T21:44:40.464Z,-5.70
2022-12-10T21:46:43.216Z,-5.62
2022-12-10T21:48:45.879Z,-5.64
2022-12-10T21:50:48.796Z,-5.64
2022-12-10T21:52:53.133Z,-5.62
2022-12-10T21:54:55.696Z,-5.62
2022-12-10T21:56:58.270Z,-5.65
2022-12-10T21:59:00.849Z,-5.66
2022-12-10T22:01:03.647Z,-5.68
2022-12-10T22:03:06.679Z,-5.70
2022-12-10T22:05:10.714Z,-5.66
2022-12-10T22:07:13.440Z,-5.69
2022-12-10T22:09:16.207Z,-5.62
2022-12-10T22:11:18.940Z,-5.59
2022-12-10T22:13:21.647Z,-5.63
2022-12-10T22:15:24.197Z,-5.61
2022-12-10T22:17:27.397Z,-5.62
2022-12-10T22:19:30.000Z,-5.65
2022-12-10T22:21:32.547Z,-5.63
2022-12-10T22:23:35.089Z,-5.63
2022-12-10T22:25:40.955Z,-5.62
2022-12-10T22:27:43.514Z,-5.62
2022-12-10T22:29:46.239Z,-5.67
2022-12-10T22:31:48.925Z,-5.68
2022-12-10T22:33:51.612Z,-5.69
2022-12-10T22:35:54.191Z,-5.71
2022-12-10T22:37:56.831Z,-5.63
2022-12-10T22:40:05.539Z,-5.61
2022-12-10T22:42:08.270Z,-5.60
2022-12-10T22:44:11.477Z,-5.59
2022-12-10T22:46:14.102Z,-5.59
2022-12-10T22:48:16.641Z,-5.62
2022-12-10T22:50:19.492Z,-5.58
2022-12-10T22:52:22.051Z,-5.57
2022-12-10T22:54:26.212Z,-5.59
2022-12-10T22:56:30.285Z,-5.58
2022-12-10T22:58:33.708Z,-5.62
2022-12-10T23:00:36.259Z,-5.57
2022-12-10T23:02:39.836Z,-5.55
2022-12-10T23:04:42.434Z,-5.55
2022-12-10T23:06:45.028Z,-5.51
2022-12-10T23:08:48.056Z,-5.52
2022-12-10T23:10:51.064Z,-5.53
2022-12-10T23:13:11.088Z,-5.49
2022-12-10T23:15:13.696Z,-5.44
2022-12-10T23:17:16.331Z,-5.47
2022-12-10T23:19:19.175Z,-5.53
2022-12-10T23:21:26.789Z,-5.41
2022-12-10T23:23:30.116Z,-5.43
2022-12-10T23:25:33.768Z,-5.42
2022-12-10T23:27:36.361Z,-5.40
2022-12-10T23:29:39.085Z,-5.39
2022-12-10T23:31:42.045Z,-5.36
2022-12-10T23:33:44.696Z,-5.34
2022-12-10T23:35:47.283Z,-5.34
2022-12-10T23:37:50.739Z,-5.33
2022-12-10T23:39:54.440Z,-5.33
2022-12-10T23:41:57.013Z,-5.34
2022-12-10T23:43:59.525Z,-5.29
2022-12-10T23:46:02.659Z,-5.26
2022-12-10T23:48:06.005Z,-5.26
2022-12-10T23:50:09.408Z,-5.21
2022-12-10T23:52:11.997Z,-5.17
2022-12-10T23:54:14.636Z,-5.15
2022-12-10T23:56:19.855Z,-5.14
2022-12-10T23:58:22.958Z,-5.13
